Linn, WV

2:00 AM EDT on April 26, 2015 (GMT -0400)
Quirky Towers, Vadis | | Change Station
CLOSE
Current Station
Personal Weather Station
Location: Alum Bridge, WV
Elevation: 837 ft
Nearby Weather Stations

Elev 837 ft 39.04 °N, 80.71 °W | Updated 1 minute ago

Mostly Cloudy
Mostly Cloudy
41.5 °F
Feels Like 42 °F
N
0.0
Wind Variable Wind from NE
Gusts 0.0 mph

Today
High -- | Low -- °F
--% Chance of Precip.
Yesterday
High -- | Low -- °F
Precip. -- in
6:31 AM 8:10 PM
First Quarter, 52% visible
Pressure 29.63 in
Visibility 10.0 miles
Clouds Mostly Cloudy 3700 ft
Overcast 8500 ft
Windchill 42 °F
Dew Point 41 °F
Humidity 99%
Rainfall 0.00 in
Snow Depth Not available.
UV 0 out of 12
Pollen 7.30 out of 12
Air Quality Not available.
Flu Activity Sporadic
METAR KW22 260535Z AUTO 06004KT 10SM BKN037 OVC085 04/04 A2963 RMK AO2

More Conditions Fewer Conditions

Pressure 29.63 in
Visibility 10.0 miles
Clouds Mostly Cloudy 3700 ft
Overcast 8500 ft
Windchill 42 °F
Dew Point 41 °F
Humidity 99%
Rainfall 0.00 in
Snow Depth Not available.
UV 0 out of 12
Pollen 7.30 out of 12
Air Quality Not available.
Flu Activity Sporadic
METAR KW22 260535Z AUTO 06004KT 10SM BKN037 OVC085 04/04 A2963 RMK AO2

More Conditions Fewer Conditions

The full scope of the disaster following a powerful 7.8-magnitude earthquake in Nepal may not come into view for days, but global charities are already sending emergency aid. Click to see how you can help.

10-Day Weather Forecast

Almanac

Astronomy

Apr. 26, 2015 Rise Set
Actual Time
Civil Twilight
Nautical Twilight
Astronomical Twilight
Moon
Length of Visible Light
Length of Day
Tomorrow will be .
, % of the Moon is Illuminated

Today's Extremes

State Highs State Lows

Community

WunderPhotos

Upload Photos

1,816,947 photos uploaded!

WunderBlogs® & News

Nearby

Air Quality

  Air Quality AQ Index Pollutant
Not available.

Snow Depth

Station Depth Elevation

Earthquake Activity

City Distance Mag. Time & Date
Minimum magnitude displayed is 2.5.

Coastal Water Temperatures

Place Temperature

Stations

Nearby Weather Stations

Station Location Temp. Windchill Dew Point Humidity Wind Precip. Elev Updated Type